Minneapolis, North Carolina
Current Conditions -  °F | °C
As of 7:35 AM on Saturday 25 Oct 2014 (Local Time) from KTNB Reporting Station
Clear Clear  
Wind Chill: 41°   Ceiling: Unl
Heat Index: 45°   Visibility: 10mi
Dew Point: 34°   Wind: 7mph
Humidity: 67%   Direction: 300°WNW
Pressure: 30.08"   Gusts: NA
Location:  36.1°N, 81.99°W
Report Text: KTNB 251135Z AUTO 30006KT 10SM CLR 07/01 A3008 RMK AO2 T00710013
Loading
Personal Weather Stations






























Interactive Weather Map
Tropical Storm Tracking
New forecast layout! Learn more

10-Day Weather Forecast

Advertisements
Track Severe Weather on mobile